KMDW/MDW METAR and TAF weather

Enter ICAO airport designator
Station Type Date Time Source
KMDW METAR 2019/02/16 07:53 UTC NOAA

KMDW 160753Z 30007KT 10SM OVC022 M08/M14 A3009 RMK AO2 SLP207 T10781144 $


Station Type Date Time Source
KMDW Decoded METAR 2019/02/16 07:53 UTC NOAA

CHICAGO MIDWAY AIRPORT, IL, United States (KMDW) 41-47N 087-45W 188M
Feb 16, 2019 - 02:53 AM EST / 2019.02.16 0753 UTC
Wind: from the WNW (300 degrees) at 8 MPH (7 KT):0
Visibility: 10 mile(s):0
Sky conditions: overcast
Temperature: 18.0 F (-7.8 C)
Windchill: 8 F (-13 C):1
Dew Point: 6.1 F (-14.4 C)
Relative Humidity: 59%
Pressure (altimeter): 30.09 in. Hg (1018 hPa)
ob: KMDW 160753Z 30007KT 10SM OVC022 M08/M14 A3009 RMK AO2 SLP207 T10781144
cycle: 8

Station Type Date Time Source
KMDW TAF 2019/02/16 06:36 UTC NOAA

TAF KMDW 160534Z 1606/1712 34007KT P6SM SCT022 BKN250
TEMPO 1606/1608 BKN022
FM160800 36005KT P6SM BKN020
FM161400 04008KT P6SM OVC017 PROB30 1615/1619 5SM -SN
FM162000 05010KT P6SM BKN035
FM170100 07009KT P6SM SCT035 BKN200
FM171100 08010KT 2SM -SN OVC030


Example: see airport list